Terminal Aerodrome Forecast
Issued by NWS Buffalo, NY

Current Version | Previous Version | Text Only | Print | Product List | Glossary On
Versions: 1 2 3 4 5 6 7 8 9 10 11 12 13 14 15 16 17 18 19 20 21
000
FTUS41 KBUF 281700
TAFROC
TAF
KROC 281732Z 2818/2918 29005KT P6SM FEW250
     FM291100 15006KT P6SM OVC100
     FM291500 17011KT P6SM VCSH OVC030
     FM291700 16015G21KT P6SM VCSH OVC045=

USA.gov is the U.S. government's official web portal to all federal, state and local government web resources and services.